sensor_id;sensor_type;location;lat;lon;timestamp;P1;durP1;ratioP1;P2;durP2;ratioP2
5682;SDS011;2864;49.220;8.654;2023-02-15T00:01:45;58.30;;;28.73;;
5682;SDS011;2864;49.220;8.654;2023-02-15T00:04:12;52.40;;;26.83;;
5682;SDS011;2864;49.220;8.654;2023-02-15T00:06:39;50.57;;;25.43;;
5682;SDS011;2864;49.220;8.654;2023-02-15T00:09:05;53.03;;;26.03;;
5682;SDS011;2864;49.220;8.654;2023-02-15T00:11:32;48.13;;;24.70;;
5682;SDS011;2864;49.220;8.654;2023-02-15T00:14:17;47.17;;;24.77;;
5682;SDS011;2864;49.220;8.654;2023-02-15T00:16:48;46.63;;;25.63;;
5682;SDS011;2864;49.220;8.654;2023-02-15T00:19:15;53.90;;;25.73;;
5682;SDS011;2864;49.220;8.654;2023-02-15T00:21:42;49.53;;;25.97;;
5682;SDS011;2864;49.220;8.654;2023-02-15T00:24:09;52.10;;;26.17;;
5682;SDS011;2864;49.220;8.654;2023-02-15T00:26:39;47.10;;;25.93;;
5682;SDS011;2864;49.220;8.654;2023-02-15T00:29:06;48.80;;;24.43;;
5682;SDS011;2864;49.220;8.654;2023-02-15T00:31:33;45.97;;;24.57;;
5682;SDS011;2864;49.220;8.654;2023-02-15T00:34:06;48.43;;;25.37;;
5682;SDS011;2864;49.220;8.654;2023-02-15T00:36:41;44.93;;;24.10;;
5682;SDS011;2864;49.220;8.654;2023-02-15T00:39:07;48.53;;;25.70;;
5682;SDS011;2864;49.220;8.654;2023-02-15T00:41:33;46.67;;;23.67;;
5682;SDS011;2864;49.220;8.654;2023-02-15T00:44:00;48.07;;;24.73;;
5682;SDS011;2864;49.220;8.654;2023-02-15T00:46:26;49.13;;;24.97;;
5682;SDS011;2864;49.220;8.654;2023-02-15T00:48:52;49.17;;;25.33;;
5682;SDS011;2864;49.220;8.654;2023-02-15T00:51:18;49.00;;;24.80;;
5682;SDS011;2864;49.220;8.654;2023-02-15T00:53:45;46.67;;;24.73;;
5682;SDS011;2864;49.220;8.654;2023-02-15T00:56:11;44.53;;;23.10;;
5682;SDS011;2864;49.220;8.654;2023-02-15T00:58:37;45.90;;;25.43;;
5682;SDS011;2864;49.220;8.654;2023-02-15T01:01:07;51.77;;;26.00;;
5682;SDS011;2864;49.220;8.654;2023-02-15T01:03:34;49.93;;;25.30;;
5682;SDS011;2864;49.220;8.654;2023-02-15T01:06:00;52.87;;;25.80;;
5682;SDS011;2864;49.220;8.654;2023-02-15T01:08:26;51.57;;;26.67;;
5682;SDS011;2864;49.220;8.654;2023-02-15T01:10:52;44.47;;;24.60;;
5682;SDS011;2864;49.220;8.654;2023-02-15T01:13:18;47.60;;;25.57;;
5682;SDS011;2864;49.220;8.654;2023-02-15T01:15:44;46.10;;;24.80;;
5682;SDS011;2864;49.220;8.654;2023-02-15T01:18:11;49.37;;;25.77;;
5682;SDS011;2864;49.220;8.654;2023-02-15T01:20:38;42.67;;;24.17;;
5682;SDS011;2864;49.220;8.654;2023-02-15T01:23:06;50.90;;;24.60;;
5682;SDS011;2864;49.220;8.654;2023-02-15T01:25:33;47.23;;;24.67;;
5682;SDS011;2864;49.220;8.654;2023-02-15T01:27:59;44.37;;;24.37;;
5682;SDS011;2864;49.220;8.654;2023-02-15T01:30:26;48.67;;;24.30;;
5682;SDS011;2864;49.220;8.654;2023-02-15T01:32:52;50.30;;;23.23;;
5682;SDS011;2864;49.220;8.654;2023-02-15T01:35:18;40.77;;;22.63;;
5682;SDS011;2864;49.220;8.654;2023-02-15T01:37:44;43.03;;;22.90;;
5682;SDS011;2864;49.220;8.654;2023-02-15T01:40:14;44.63;;;22.90;;
5682;SDS011;2864;49.220;8.654;2023-02-15T01:42:40;47.87;;;23.70;;
5682;SDS011;2864;49.220;8.654;2023-02-15T01:48:15;42.50;;;22.43;;
5682;SDS011;2864;49.220;8.654;2023-02-15T01:50:40;51.00;;;24.70;;
5682;SDS011;2864;49.220;8.654;2023-02-15T01:53:18;55.50;;;24.77;;
5682;SDS011;2864;49.220;8.654;2023-02-15T01:56:12;51.73;;;24.40;;
5682;SDS011;2864;49.220;8.654;2023-02-15T01:58:39;51.47;;;25.17;;
5682;SDS011;2864;49.220;8.654;2023-02-15T02:01:06;40.43;;;21.47;;
5682;SDS011;2864;49.220;8.654;2023-02-15T02:03:44;47.37;;;22.40;;
5682;SDS011;2864;49.220;8.654;2023-02-15T02:06:13;45.23;;;23.63;;
5682;SDS011;2864;49.220;8.654;2023-02-15T02:08:40;41.93;;;23.30;;
5682;SDS011;2864;49.220;8.654;2023-02-15T02:11:10;40.73;;;21.70;;
5682;SDS011;2864;49.220;8.654;2023-02-15T02:13:37;37.47;;;20.93;;
5682;SDS011;2864;49.220;8.654;2023-02-15T02:16:06;42.53;;;21.70;;
5682;SDS011;2864;49.220;8.654;2023-02-15T02:18:37;37.23;;;20.47;;
5682;SDS011;2864;49.220;8.654;2023-02-15T02:24:06;39.57;;;21.50;;
5682;SDS011;2864;49.220;8.654;2023-02-15T02:39:31;35.43;;;19.50;;
5682;SDS011;2864;49.220;8.654;2023-02-15T02:42:05;37.13;;;19.77;;
5682;SDS011;2864;49.220;8.654;2023-02-15T02:45:05;33.63;;;19.30;;
5682;SDS011;2864;49.220;8.654;2023-02-15T02:47:33;36.33;;;19.30;;
5682;SDS011;2864;49.220;8.654;2023-02-15T02:50:04;36.13;;;19.90;;
5682;SDS011;2864;49.220;8.654;2023-02-15T02:52:35;34.67;;;19.53;;
5682;SDS011;2864;49.220;8.654;2023-02-15T02:55:11;37.13;;;19.53;;
5682;SDS011;2864;49.220;8.654;2023-02-15T02:57:40;34.80;;;19.53;;
5682;SDS011;2864;49.220;8.654;2023-02-15T03:00:09;35.13;;;19.00;;
5682;SDS011;2864;49.220;8.654;2023-02-15T03:02:36;37.83;;;20.60;;
5682;SDS011;2864;49.220;8.654;2023-02-15T03:05:08;35.33;;;19.60;;
5682;SDS011;2864;49.220;8.654;2023-02-15T03:07:38;34.33;;;19.53;;
5682;SDS011;2864;49.220;8.654;2023-02-15T03:10:05;36.40;;;20.37;;
5682;SDS011;2864;49.220;8.654;2023-02-15T03:12:32;38.97;;;19.53;;
5682;SDS011;2864;49.220;8.654;2023-02-15T03:17:42;33.13;;;18.73;;
5682;SDS011;2864;49.220;8.654;2023-02-15T03:20:16;33.53;;;19.37;;
5682;SDS011;2864;49.220;8.654;2023-02-15T03:22:53;35.27;;;19.60;;
5682;SDS011;2864;49.220;8.654;2023-02-15T03:25:33;35.17;;;19.30;;
5682;SDS011;2864;49.220;8.654;2023-02-15T03:28:01;37.47;;;19.57;;
5682;SDS011;2864;49.220;8.654;2023-02-15T03:30:31;34.47;;;18.87;;
5682;SDS011;2864;49.220;8.654;2023-02-15T03:32:58;31.70;;;18.20;;
5682;SDS011;2864;49.220;8.654;2023-02-15T03:35:26;33.17;;;18.40;;
5682;SDS011;2864;49.220;8.654;2023-02-15T03:38:04;30.67;;;17.97;;
5682;SDS011;2864;49.220;8.654;2023-02-15T03:40:34;32.40;;;18.40;;
5682;SDS011;2864;49.220;8.654;2023-02-15T03:43:37;31.23;;;17.33;;
5682;SDS011;2864;49.220;8.654;2023-02-15T03:46:12;31.37;;;18.47;;
5682;SDS011;2864;49.220;8.654;2023-02-15T03:48:45;30.97;;;17.50;;
5682;SDS011;2864;49.220;8.654;2023-02-15T03:51:17;33.27;;;18.80;;
5682;SDS011;2864;49.220;8.654;2023-02-15T03:53:58;35.67;;;18.70;;
5682;SDS011;2864;49.220;8.654;2023-02-15T03:56:25;34.93;;;19.90;;
5682;SDS011;2864;49.220;8.654;2023-02-15T03:58:51;32.03;;;18.53;;
5682;SDS011;2864;49.220;8.654;2023-02-15T04:01:47;34.23;;;19.73;;
5682;SDS011;2864;49.220;8.654;2023-02-15T04:06:50;37.27;;;18.33;;
5682;SDS011;2864;49.220;8.654;2023-02-15T04:09:16;34.27;;;19.37;;
5682;SDS011;2864;49.220;8.654;2023-02-15T04:12:01;34.37;;;18.63;;
5682;SDS011;2864;49.220;8.654;2023-02-15T04:14:26;32.53;;;19.53;;
5682;SDS011;2864;49.220;8.654;2023-02-15T04:17:14;37.33;;;18.90;;
5682;SDS011;2864;49.220;8.654;2023-02-15T04:19:40;32.57;;;18.30;;
5682;SDS011;2864;49.220;8.654;2023-02-15T04:22:24;35.43;;;19.87;;
5682;SDS011;2864;49.220;8.654;2023-02-15T04:25:09;36.07;;;19.00;;
5682;SDS011;2864;49.220;8.654;2023-02-15T04:27:38;38.23;;;19.87;;
5682;SDS011;2864;49.220;8.654;2023-02-15T04:30:04;34.70;;;18.87;;
5682;SDS011;2864;49.220;8.654;2023-02-15T04:32:31;35.93;;;19.77;;
5682;SDS011;2864;49.220;8.654;2023-02-15T04:34:57;32.27;;;18.43;;
5682;SDS011;2864;49.220;8.654;2023-02-15T04:37:23;33.27;;;19.10;;
5682;SDS011;2864;49.220;8.654;2023-02-15T04:39:49;32.13;;;18.63;;
5682;SDS011;2864;49.220;8.654;2023-02-15T04:42:15;35.60;;;19.23;;
5682;SDS011;2864;49.220;8.654;2023-02-15T04:44:41;29.87;;;18.50;;
5682;SDS011;2864;49.220;8.654;2023-02-15T04:47:07;36.13;;;20.70;;
5682;SDS011;2864;49.220;8.654;2023-02-15T04:49:33;35.67;;;19.20;;
5682;SDS011;2864;49.220;8.654;2023-02-15T04:51:59;34.07;;;18.70;;
5682;SDS011;2864;49.220;8.654;2023-02-15T04:54:25;36.77;;;19.87;;
5682;SDS011;2864;49.220;8.654;2023-02-15T04:56:51;40.57;;;21.03;;
5682;SDS011;2864;49.220;8.654;2023-02-15T04:59:17;89.33;;;34.67;;
5682;SDS011;2864;49.220;8.654;2023-02-15T05:01:43;40.57;;;20.40;;
5682;SDS011;2864;49.220;8.654;2023-02-15T05:04:09;33.20;;;18.37;;
5682;SDS011;2864;49.220;8.654;2023-02-15T05:06:35;29.57;;;17.93;;
5682;SDS011;2864;49.220;8.654;2023-02-15T05:09:01;30.23;;;17.87;;
5682;SDS011;2864;49.220;8.654;2023-02-15T05:11:27;29.70;;;17.50;;
5682;SDS011;2864;49.220;8.654;2023-02-15T05:13:53;29.20;;;17.63;;
5682;SDS011;2864;49.220;8.654;2023-02-15T05:16:19;30.63;;;18.50;;
5682;SDS011;2864;49.220;8.654;2023-02-15T05:18:45;30.50;;;18.20;;
5682;SDS011;2864;49.220;8.654;2023-02-15T05:21:11;33.30;;;18.57;;
5682;SDS011;2864;49.220;8.654;2023-02-15T05:23:38;29.47;;;17.20;;
5682;SDS011;2864;49.220;8.654;2023-02-15T05:26:04;32.03;;;17.57;;
5682;SDS011;2864;49.220;8.654;2023-02-15T05:28:49;32.03;;;17.67;;
5682;SDS011;2864;49.220;8.654;2023-02-15T05:31:17;31.57;;;18.07;;
5682;SDS011;2864;49.220;8.654;2023-02-15T05:33:43;28.03;;;17.07;;
5682;SDS011;2864;49.220;8.654;2023-02-15T05:36:09;36.30;;;19.00;;
5682;SDS011;2864;49.220;8.654;2023-02-15T05:38:35;35.03;;;18.87;;
5682;SDS011;2864;49.220;8.654;2023-02-15T05:41:02;29.73;;;18.20;;
5682;SDS011;2864;49.220;8.654;2023-02-15T05:43:29;32.97;;;18.83;;
5682;SDS011;2864;49.220;8.654;2023-02-15T05:45:55;36.67;;;20.43;;
5682;SDS011;2864;49.220;8.654;2023-02-15T05:48:22;34.00;;;18.53;;
5682;SDS011;2864;49.220;8.654;2023-02-15T05:53:25;36.03;;;20.40;;
5682;SDS011;2864;49.220;8.654;2023-02-15T05:55:51;37.67;;;21.80;;
5682;SDS011;2864;49.220;8.654;2023-02-15T05:58:18;36.23;;;19.57;;
5682;SDS011;2864;49.220;8.654;2023-02-15T06:00:44;37.00;;;19.57;;
5682;SDS011;2864;49.220;8.654;2023-02-15T06:03:10;34.13;;;19.17;;
5682;SDS011;2864;49.220;8.654;2023-02-15T06:05:36;33.50;;;19.70;;
5682;SDS011;2864;49.220;8.654;2023-02-15T06:08:02;43.17;;;24.00;;
5682;SDS011;2864;49.220;8.654;2023-02-15T06:10:28;37.00;;;19.90;;
5682;SDS011;2864;49.220;8.654;2023-02-15T06:12:54;34.03;;;18.90;;
5682;SDS011;2864;49.220;8.654;2023-02-15T06:15:20;32.10;;;17.80;;
5682;SDS011;2864;49.220;8.654;2023-02-15T06:17:46;33.87;;;18.33;;
5682;SDS011;2864;49.220;8.654;2023-02-15T06:20:12;31.77;;;18.20;;
5682;SDS011;2864;49.220;8.654;2023-02-15T06:22:38;32.90;;;19.17;;
5682;SDS011;2864;49.220;8.654;2023-02-15T06:25:05;33.03;;;19.30;;
5682;SDS011;2864;49.220;8.654;2023-02-15T06:27:30;35.53;;;19.03;;
5682;SDS011;2864;49.220;8.654;2023-02-15T06:29:56;32.73;;;18.63;;
5682;SDS011;2864;49.220;8.654;2023-02-15T06:32:22;37.23;;;19.70;;
5682;SDS011;2864;49.220;8.654;2023-02-15T06:34:48;32.57;;;18.50;;
5682;SDS011;2864;49.220;8.654;2023-02-15T06:37:14;34.90;;;20.10;;
5682;SDS011;2864;49.220;8.654;2023-02-15T06:39:40;33.90;;;18.80;;
5682;SDS011;2864;49.220;8.654;2023-02-15T06:42:07;33.33;;;19.93;;
5682;SDS011;2864;49.220;8.654;2023-02-15T06:44:33;31.23;;;18.13;;
5682;SDS011;2864;49.220;8.654;2023-02-15T06:46:59;32.53;;;17.80;;
5682;SDS011;2864;49.220;8.654;2023-02-15T06:49:25;31.03;;;17.40;;
5682;SDS011;2864;49.220;8.654;2023-02-15T06:51:51;35.03;;;17.87;;
5682;SDS011;2864;49.220;8.654;2023-02-15T06:54:17;29.57;;;17.97;;
5682;SDS011;2864;49.220;8.654;2023-02-15T06:56:43;32.27;;;17.60;;
5682;SDS011;2864;49.220;8.654;2023-02-15T06:59:09;32.77;;;18.57;;
5682;SDS011;2864;49.220;8.654;2023-02-15T07:01:35;33.50;;;17.40;;
5682;SDS011;2864;49.220;8.654;2023-02-15T07:04:02;30.53;;;17.07;;
5682;SDS011;2864;49.220;8.654;2023-02-15T07:06:30;32.20;;;17.93;;
5682;SDS011;2864;49.220;8.654;2023-02-15T07:08:59;33.00;;;18.00;;
5682;SDS011;2864;49.220;8.654;2023-02-15T07:11:25;33.90;;;18.30;;
5682;SDS011;2864;49.220;8.654;2023-02-15T07:14:10;33.30;;;18.33;;
5682;SDS011;2864;49.220;8.654;2023-02-15T07:16:36;37.57;;;18.37;;
5682;SDS011;2864;49.220;8.654;2023-02-15T07:19:02;35.87;;;20.13;;
5682;SDS011;2864;49.220;8.654;2023-02-15T07:21:28;33.83;;;19.17;;
5682;SDS011;2864;49.220;8.654;2023-02-15T07:23:55;34.57;;;19.23;;
5682;SDS011;2864;49.220;8.654;2023-02-15T07:26:21;34.57;;;18.70;;
5682;SDS011;2864;49.220;8.654;2023-02-15T07:28:47;35.40;;;18.37;;
5682;SDS011;2864;49.220;8.654;2023-02-15T07:31:13;29.87;;;19.17;;
5682;SDS011;2864;49.220;8.654;2023-02-15T07:33:39;35.33;;;18.40;;
5682;SDS011;2864;49.220;8.654;2023-02-15T07:36:05;31.57;;;18.23;;
5682;SDS011;2864;49.220;8.654;2023-02-15T07:38:35;34.20;;;17.70;;
5682;SDS011;2864;49.220;8.654;2023-02-15T07:41:06;34.30;;;18.60;;
5682;SDS011;2864;49.220;8.654;2023-02-15T07:43:33;35.33;;;18.67;;
5682;SDS011;2864;49.220;8.654;2023-02-15T07:46:00;35.77;;;19.67;;
5682;SDS011;2864;49.220;8.654;2023-02-15T07:48:26;36.70;;;19.90;;
5682;SDS011;2864;49.220;8.654;2023-02-15T07:50:52;29.63;;;18.17;;
5682;SDS011;2864;49.220;8.654;2023-02-15T07:53:18;32.83;;;18.30;;
5682;SDS011;2864;49.220;8.654;2023-02-15T07:55:44;37.63;;;18.37;;
5682;SDS011;2864;49.220;8.654;2023-02-15T07:58:10;43.70;;;18.73;;
5682;SDS011;2864;49.220;8.654;2023-02-15T08:00:35;40.87;;;21.03;;
5682;SDS011;2864;49.220;8.654;2023-02-15T08:03:22;36.87;;;20.07;;
5682;SDS011;2864;49.220;8.654;2023-02-15T08:05:49;37.57;;;19.13;;
5682;SDS011;2864;49.220;8.654;2023-02-15T08:08:15;35.60;;;19.00;;
5682;SDS011;2864;49.220;8.654;2023-02-15T08:11:00;39.53;;;19.00;;
5682;SDS011;2864;49.220;8.654;2023-02-15T08:13:45;39.50;;;19.70;;
5682;SDS011;2864;49.220;8.654;2023-02-15T08:16:19;35.00;;;19.60;;
5682;SDS011;2864;49.220;8.654;2023-02-15T08:18:46;41.27;;;19.30;;
5682;SDS011;2864;49.220;8.654;2023-02-15T08:21:12;37.20;;;19.93;;
5682;SDS011;2864;49.220;8.654;2023-02-15T08:23:38;36.13;;;19.93;;
5682;SDS011;2864;49.220;8.654;2023-02-15T08:26:04;36.17;;;21.13;;
5682;SDS011;2864;49.220;8.654;2023-02-15T08:28:30;36.17;;;20.63;;
5682;SDS011;2864;49.220;8.654;2023-02-15T08:31:03;35.17;;;19.57;;
5682;SDS011;2864;49.220;8.654;2023-02-15T08:33:29;33.63;;;19.03;;
5682;SDS011;2864;49.220;8.654;2023-02-15T08:35:55;32.73;;;18.40;;
5682;SDS011;2864;49.220;8.654;2023-02-15T08:38:21;35.70;;;19.30;;
5682;SDS011;2864;49.220;8.654;2023-02-15T08:40:47;34.67;;;18.87;;
5682;SDS011;2864;49.220;8.654;2023-02-15T08:43:13;37.53;;;19.93;;
5682;SDS011;2864;49.220;8.654;2023-02-15T08:45:39;33.43;;;19.77;;
5682;SDS011;2864;49.220;8.654;2023-02-15T08:48:05;38.37;;;21.43;;
5682;SDS011;2864;49.220;8.654;2023-02-15T08:50:31;39.47;;;25.73;;
5682;SDS011;2864;49.220;8.654;2023-02-15T08:52:56;30.73;;;19.33;;
5682;SDS011;2864;49.220;8.654;2023-02-15T08:55:22;31.60;;;18.33;;
5682;SDS011;2864;49.220;8.654;2023-02-15T08:57:48;33.20;;;18.23;;
5682;SDS011;2864;49.220;8.654;2023-02-15T09:00:14;31.97;;;19.30;;
5682;SDS011;2864;49.220;8.654;2023-02-15T09:02:41;30.13;;;17.00;;
5682;SDS011;2864;49.220;8.654;2023-02-15T09:05:07;29.73;;;17.20;;
5682;SDS011;2864;49.220;8.654;2023-02-15T09:07:33;32.27;;;16.20;;
5682;SDS011;2864;49.220;8.654;2023-02-15T09:09:58;26.33;;;16.30;;
5682;SDS011;2864;49.220;8.654;2023-02-15T09:12:24;25.27;;;15.80;;
5682;SDS011;2864;49.220;8.654;2023-02-15T09:14:50;25.27;;;15.90;;
5682;SDS011;2864;49.220;8.654;2023-02-15T09:17:16;27.17;;;17.27;;
5682;SDS011;2864;49.220;8.654;2023-02-15T09:19:42;28.13;;;17.07;;
5682;SDS011;2864;49.220;8.654;2023-02-15T09:22:08;26.83;;;15.80;;
5682;SDS011;2864;49.220;8.654;2023-02-15T09:24:34;27.67;;;15.93;;
5682;SDS011;2864;49.220;8.654;2023-02-15T09:27:00;26.37;;;16.20;;
5682;SDS011;2864;49.220;8.654;2023-02-15T09:29:26;27.47;;;16.23;;
5682;SDS011;2864;49.220;8.654;2023-02-15T09:31:52;25.23;;;16.50;;
5682;SDS011;2864;49.220;8.654;2023-02-15T09:34:19;24.97;;;15.33;;
5682;SDS011;2864;49.220;8.654;2023-02-15T09:36:45;28.83;;;17.03;;
5682;SDS011;2864;49.220;8.654;2023-02-15T09:39:13;26.77;;;16.67;;
5682;SDS011;2864;49.220;8.654;2023-02-15T09:50:20;27.57;;;16.50;;
5682;SDS011;2864;49.220;8.654;2023-02-15T10:03:04;23.67;;;14.90;;
5682;SDS011;2864;49.220;8.654;2023-02-15T10:08:16;27.70;;;15.80;;
5682;SDS011;2864;49.220;8.654;2023-02-15T10:10:52;25.10;;;15.97;;
5682;SDS011;2864;49.220;8.654;2023-02-15T10:13:34;23.73;;;14.80;;
5682;SDS011;2864;49.220;8.654;2023-02-15T10:20:57;20.93;;;14.00;;
5682;SDS011;2864;49.220;8.654;2023-02-15T10:28:55;21.07;;;14.57;;
5682;SDS011;2864;49.220;8.654;2023-02-15T10:34:09;27.80;;;15.03;;
5682;SDS011;2864;49.220;8.654;2023-02-15T10:39:43;25.03;;;14.93;;
5682;SDS011;2864;49.220;8.654;2023-02-15T10:56:01;27.83;;;15.80;;
5682;SDS011;2864;49.220;8.654;2023-02-15T11:04:14;27.43;;;14.90;;
5682;SDS011;2864;49.220;8.654;2023-02-15T11:06:49;21.97;;;14.83;;
5682;SDS011;2864;49.220;8.654;2023-02-15T11:09:19;28.07;;;15.73;;
5682;SDS011;2864;49.220;8.654;2023-02-15T11:11:51;23.17;;;15.93;;
5682;SDS011;2864;49.220;8.654;2023-02-15T11:14:27;24.90;;;16.37;;
5682;SDS011;2864;49.220;8.654;2023-02-15T11:17:09;24.07;;;15.83;;
5682;SDS011;2864;49.220;8.654;2023-02-15T11:22:22;21.97;;;15.33;;
5682;SDS011;2864;49.220;8.654;2023-02-15T11:24:48;23.80;;;15.53;;
5682;SDS011;2864;49.220;8.654;2023-02-15T11:27:28;24.87;;;16.27;;
5682;SDS011;2864;49.220;8.654;2023-02-15T11:30:09;27.13;;;16.60;;
5682;SDS011;2864;49.220;8.654;2023-02-15T11:32:44;23.23;;;14.83;;
5682;SDS011;2864;49.220;8.654;2023-02-15T11:35:18;26.93;;;15.00;;
5682;SDS011;2864;49.220;8.654;2023-02-15T11:37:49;22.73;;;15.80;;
5682;SDS011;2864;49.220;8.654;2023-02-15T11:40:29;23.13;;;15.30;;
5682;SDS011;2864;49.220;8.654;2023-02-15T11:43:00;23.50;;;16.07;;
5682;SDS011;2864;49.220;8.654;2023-02-15T11:45:28;23.10;;;15.50;;
5682;SDS011;2864;49.220;8.654;2023-02-15T11:47:56;25.40;;;15.67;;
5682;SDS011;2864;49.220;8.654;2023-02-15T11:50:23;26.50;;;16.63;;
5682;SDS011;2864;49.220;8.654;2023-02-15T11:52:50;25.27;;;16.57;;
5682;SDS011;2864;49.220;8.654;2023-02-15T11:55:19;29.33;;;17.07;;
5682;SDS011;2864;49.220;8.654;2023-02-15T11:57:48;23.70;;;15.63;;
5682;SDS011;2864;49.220;8.654;2023-02-15T12:00:35;37.70;;;17.63;;
5682;SDS011;2864;49.220;8.654;2023-02-15T12:03:11;28.00;;;16.30;;
5682;SDS011;2864;49.220;8.654;2023-02-15T12:05:44;29.30;;;18.93;;
5682;SDS011;2864;49.220;8.654;2023-02-15T12:08:18;27.00;;;16.63;;
5682;SDS011;2864;49.220;8.654;2023-02-15T12:10:58;25.43;;;15.73;;
5682;SDS011;2864;49.220;8.654;2023-02-15T12:13:26;24.93;;;16.47;;
5682;SDS011;2864;49.220;8.654;2023-02-15T12:15:53;30.17;;;17.07;;
5682;SDS011;2864;49.220;8.654;2023-02-15T12:21:05;27.93;;;17.27;;
5682;SDS011;2864;49.220;8.654;2023-02-15T12:23:43;28.03;;;17.67;;
5682;SDS011;2864;49.220;8.654;2023-02-15T12:26:12;27.10;;;18.10;;
5682;SDS011;2864;49.220;8.654;2023-02-15T12:28:40;26.00;;;15.27;;
5682;SDS011;2864;49.220;8.654;2023-02-15T12:31:09;28.33;;;16.30;;
5682;SDS011;2864;49.220;8.654;2023-02-15T12:33:45;24.03;;;15.90;;
5682;SDS011;2864;49.220;8.654;2023-02-15T12:36:17;31.27;;;16.43;;
5682;SDS011;2864;49.220;8.654;2023-02-15T12:39:00;25.00;;;16.20;;
5682;SDS011;2864;49.220;8.654;2023-02-15T12:41:27;28.00;;;16.47;;
5682;SDS011;2864;49.220;8.654;2023-02-15T12:44:06;21.83;;;14.73;;
5682;SDS011;2864;49.220;8.654;2023-02-15T12:46:33;21.40;;;15.27;;
5682;SDS011;2864;49.220;8.654;2023-02-15T12:49:16;25.80;;;15.87;;
5682;SDS011;2864;49.220;8.654;2023-02-15T12:51:50;23.73;;;15.07;;
5682;SDS011;2864;49.220;8.654;2023-02-15T12:54:17;25.53;;;14.80;;
5682;SDS011;2864;49.220;8.654;2023-02-15T12:56:43;28.67;;;16.77;;
5682;SDS011;2864;49.220;8.654;2023-02-15T12:59:12;24.37;;;14.87;;
5682;SDS011;2864;49.220;8.654;2023-02-15T13:01:39;26.97;;;15.00;;
5682;SDS011;2864;49.220;8.654;2023-02-15T13:04:13;22.80;;;14.43;;
5682;SDS011;2864;49.220;8.654;2023-02-15T13:06:46;24.00;;;14.83;;
5682;SDS011;2864;49.220;8.654;2023-02-15T13:11:39;26.63;;;15.70;;
5682;SDS011;2864;49.220;8.654;2023-02-15T13:16:47;30.87;;;17.40;;
5682;SDS011;2864;49.220;8.654;2023-02-15T13:19:17;31.30;;;17.10;;
5682;SDS011;2864;49.220;8.654;2023-02-15T13:21:45;26.03;;;16.13;;
5682;SDS011;2864;49.220;8.654;2023-02-15T13:24:18;26.57;;;16.80;;
5682;SDS011;2864;49.220;8.654;2023-02-15T13:26:46;30.70;;;16.50;;
5682;SDS011;2864;49.220;8.654;2023-02-15T13:29:17;32.80;;;16.60;;
5682;SDS011;2864;49.220;8.654;2023-02-15T13:31:47;34.40;;;18.77;;
5682;SDS011;2864;49.220;8.654;2023-02-15T13:34:18;27.23;;;16.63;;
5682;SDS011;2864;49.220;8.654;2023-02-15T13:36:51;23.00;;;16.03;;
5682;SDS011;2864;49.220;8.654;2023-02-15T13:39:34;27.03;;;16.00;;
5682;SDS011;2864;49.220;8.654;2023-02-15T13:42:05;29.83;;;15.83;;
5682;SDS011;2864;49.220;8.654;2023-02-15T13:50:20;23.97;;;15.83;;
5682;SDS011;2864;49.220;8.654;2023-02-15T14:00:31;24.67;;;16.40;;
5682;SDS011;2864;49.220;8.654;2023-02-15T14:08:17;29.10;;;17.33;;
5682;SDS011;2864;49.220;8.654;2023-02-15T14:10:46;25.43;;;17.13;;
5682;SDS011;2864;49.220;8.654;2023-02-15T14:13:25;24.77;;;17.23;;
5682;SDS011;2864;49.220;8.654;2023-02-15T14:19:01;20.13;;;14.93;;
5682;SDS011;2864;49.220;8.654;2023-02-15T14:21:31;22.03;;;15.87;;
5682;SDS011;2864;49.220;8.654;2023-02-15T14:24:01;21.50;;;16.30;;
5682;SDS011;2864;49.220;8.654;2023-02-15T14:26:38;24.17;;;16.20;;
5682;SDS011;2864;49.220;8.654;2023-02-15T14:29:11;22.57;;;15.07;;
5682;SDS011;2864;49.220;8.654;2023-02-15T14:31:41;22.37;;;16.80;;
5682;SDS011;2864;49.220;8.654;2023-02-15T14:34:12;24.43;;;15.40;;
5682;SDS011;2864;49.220;8.654;2023-02-15T14:36:40;22.37;;;16.13;;
5682;SDS011;2864;49.220;8.654;2023-02-15T14:39:11;31.20;;;18.67;;
5682;SDS011;2864;49.220;8.654;2023-02-15T14:42:04;21.97;;;15.43;;
5682;SDS011;2864;49.220;8.654;2023-02-15T14:44:38;22.17;;;16.17;;
5682;SDS011;2864;49.220;8.654;2023-02-15T14:49:40;20.77;;;16.13;;
5682;SDS011;2864;49.220;8.654;2023-02-15T14:52:07;26.07;;;17.50;;
5682;SDS011;2864;49.220;8.654;2023-02-15T15:02:13;23.00;;;16.60;;
5682;SDS011;2864;49.220;8.654;2023-02-15T15:07:26;25.60;;;17.07;;
5682;SDS011;2864;49.220;8.654;2023-02-15T15:10:00;24.27;;;16.70;;
5682;SDS011;2864;49.220;8.654;2023-02-15T15:15:00;24.97;;;18.83;;
5682;SDS011;2864;49.220;8.654;2023-02-15T15:22:47;25.40;;;17.53;;
5682;SDS011;2864;49.220;8.654;2023-02-15T15:27:59;22.97;;;17.77;;
5682;SDS011;2864;49.220;8.654;2023-02-15T15:43:19;24.03;;;17.53;;
5682;SDS011;2864;49.220;8.654;2023-02-15T15:48:31;26.27;;;16.67;;
5682;SDS011;2864;49.220;8.654;2023-02-15T15:50:59;25.77;;;18.20;;
5682;SDS011;2864;49.220;8.654;2023-02-15T15:53:26;26.57;;;19.10;;
5682;SDS011;2864;49.220;8.654;2023-02-15T15:55:59;28.50;;;18.00;;
5682;SDS011;2864;49.220;8.654;2023-02-15T15:58:28;32.87;;;19.50;;
5682;SDS011;2864;49.220;8.654;2023-02-15T16:01:04;30.23;;;18.97;;
5682;SDS011;2864;49.220;8.654;2023-02-15T16:03:33;28.40;;;18.03;;
5682;SDS011;2864;49.220;8.654;2023-02-15T16:06:00;31.83;;;19.90;;
5682;SDS011;2864;49.220;8.654;2023-02-15T16:08:36;31.97;;;19.70;;
5682;SDS011;2864;49.220;8.654;2023-02-15T16:11:09;27.60;;;19.40;;
5682;SDS011;2864;49.220;8.654;2023-02-15T16:13:36;28.17;;;19.07;;
5682;SDS011;2864;49.220;8.654;2023-02-15T16:16:02;31.40;;;18.50;;
5682;SDS011;2864;49.220;8.654;2023-02-15T16:18:28;29.73;;;19.53;;
5682;SDS011;2864;49.220;8.654;2023-02-15T16:20:54;34.33;;;19.97;;
5682;SDS011;2864;49.220;8.654;2023-02-15T16:28:51;30.93;;;19.80;;
5682;SDS011;2864;49.220;8.654;2023-02-15T16:31:17;29.53;;;19.80;;
5682;SDS011;2864;49.220;8.654;2023-02-15T16:33:44;33.83;;;20.97;;
5682;SDS011;2864;49.220;8.654;2023-02-15T16:36:11;33.53;;;19.97;;
5682;SDS011;2864;49.220;8.654;2023-02-15T16:41:12;35.67;;;21.30;;
5682;SDS011;2864;49.220;8.654;2023-02-15T16:43:40;34.03;;;21.93;;
5682;SDS011;2864;49.220;8.654;2023-02-15T16:46:11;34.87;;;20.67;;
5682;SDS011;2864;49.220;8.654;2023-02-15T16:48:41;35.97;;;21.80;;
5682;SDS011;2864;49.220;8.654;2023-02-15T16:51:08;37.30;;;22.00;;
5682;SDS011;2864;49.220;8.654;2023-02-15T16:53:35;35.53;;;21.27;;
5682;SDS011;2864;49.220;8.654;2023-02-15T16:56:02;36.20;;;22.23;;
5682;SDS011;2864;49.220;8.654;2023-02-15T16:58:40;33.40;;;21.30;;
5682;SDS011;2864;49.220;8.654;2023-02-15T17:01:08;37.37;;;21.70;;
5682;SDS011;2864;49.220;8.654;2023-02-15T17:03:38;37.10;;;23.07;;
5682;SDS011;2864;49.220;8.654;2023-02-15T17:06:05;38.73;;;23.33;;
5682;SDS011;2864;49.220;8.654;2023-02-15T17:08:44;39.37;;;22.73;;
5682;SDS011;2864;49.220;8.654;2023-02-15T17:11:12;37.53;;;22.30;;
5682;SDS011;2864;49.220;8.654;2023-02-15T17:13:39;81.57;;;37.73;;
5682;SDS011;2864;49.220;8.654;2023-02-15T17:18:43;44.23;;;25.17;;
5682;SDS011;2864;49.220;8.654;2023-02-15T17:21:11;58.70;;;30.83;;
5682;SDS011;2864;49.220;8.654;2023-02-15T17:23:41;45.67;;;26.63;;
5682;SDS011;2864;49.220;8.654;2023-02-15T17:26:21;51.77;;;27.43;;
5682;SDS011;2864;49.220;8.654;2023-02-15T17:28:49;44.07;;;26.30;;
5682;SDS011;2864;49.220;8.654;2023-02-15T17:31:16;46.77;;;26.60;;
5682;SDS011;2864;49.220;8.654;2023-02-15T17:33:42;41.73;;;25.37;;
5682;SDS011;2864;49.220;8.654;2023-02-15T17:36:12;43.20;;;25.67;;
5682;SDS011;2864;49.220;8.654;2023-02-15T17:38:59;41.27;;;24.60;;
5682;SDS011;2864;49.220;8.654;2023-02-15T17:41:26;42.83;;;25.03;;
5682;SDS011;2864;49.220;8.654;2023-02-15T17:43:52;47.60;;;27.20;;
5682;SDS011;2864;49.220;8.654;2023-02-15T17:46:18;48.33;;;27.03;;
5682;SDS011;2864;49.220;8.654;2023-02-15T17:48:47;54.50;;;31.43;;